Time;durP1;ratioP1;P1;durP2;ratioP2;P2;SDS_P1;SDS_P2;PMS_P1;PMS_P2;Temp;Humidity;BMP_temperature;BMP_pressure;BME280_temperature;BME280_humidity;BME280_pressure;Samples;Min_cycle;Max_cycle;Signal;HPM_P1;HPM_P2
2022/03/21 00:01:16;;;;;;;27.58;13.07;;;9.00;37.60;;;;;;4919428;28;20449;-78
2022/03/21 00:03:42;;;;;;;22.63;11.50;;;8.90;39.00;;;;;;4935179;28;20417;-77
2022/03/21 00:06:08;;;;;;;23.42;10.90;;;8.90;39.90;;;;;;4904042;28;20414;-77
2022/03/21 00:08:34;;;;;;;20.23;11.60;;;8.90;40.20;;;;;;4918152;28;20489;-76
2022/03/21 00:11:00;;;;;;;27.35;11.70;;;8.90;39.60;;;;;;4916916;28;20414;-76
2022/03/21 00:13:26;;;;;;;24.63;11.38;;;8.80;39.90;;;;;;4911737;28;20408;-77
2022/03/21 00:15:54;;;;;;;19.45;11.80;;;8.70;41.40;;;;;;4909695;28;20421;-77
2022/03/21 00:18:20;;;;;;;21.33;11.00;;;8.70;43.10;;;;;;4921586;28;20414;-76
2022/03/21 00:20:48;;;;;;;20.48;11.85;;;8.70;44.40;;;;;;4912724;28;20460;-77
2022/03/21 00:23:14;;;;;;;23.25;12.00;;;8.90;44.90;;;;;;4915147;28;20405;-77
2022/03/21 00:25:40;;;;;;;23.60;11.50;;;9.10;44.30;;;;;;4921273;28;20991;-76
2022/03/21 00:28:07;;;;;;;22.65;11.98;;;8.90;45.00;;;;;;4899353;28;20431;-76
2022/03/21 00:30:34;;;;;;;21.27;11.90;;;8.80;45.40;;;;;;4939530;28;20695;-76
2022/03/21 00:33:00;;;;;;;23.58;13.35;;;8.80;46.30;;;;;;4916194;28;20409;-76
2022/03/21 00:35:27;;;;;;;22.33;12.93;;;8.70;46.10;;;;;;4930368;28;20401;-77
2022/03/21 00:37:53;;;;;;;27.48;13.40;;;8.70;46.70;;;;;;4918123;28;20436;-76
2022/03/21 00:40:19;;;;;;;23.53;12.80;;;8.70;47.10;;;;;;4929134;28;20411;-77
2022/03/21 00:42:47;;;;;;;24.52;12.75;;;8.70;47.30;;;;;;4926983;28;20421;-77
2022/03/21 00:45:15;;;;;;;24.27;13.05;;;9.00;47.80;;;;;;4902579;28;20443;-76
2022/03/21 00:47:41;;;;;;;29.10;13.10;;;8.90;47.30;;;;;;4915855;28;20501;-77
2022/03/21 00:50:09;;;;;;;25.67;13.05;;;8.80;50.10;;;;;;4917515;28;20397;-76
2022/03/21 00:52:43;;;;;;;24.20;12.13;;;8.70;51.50;;;;;;4922550;28;20513;-77
2022/03/21 00:55:10;;;;;;;30.67;14.32;;;9.00;49.80;;;;;;4922122;29;20914;-76
2022/03/21 00:57:37;;;;;;;30.88;16.33;;;9.50;44.30;;;;;;4923564;28;20424;-77
2022/03/21 01:00:06;;;;;;;34.17;16.65;;;9.70;38.50;;;;;;4904377;28;20417;-77
2022/03/21 01:02:32;;;;;;;37.38;17.92;;;9.60;38.90;;;;;;4903506;28;20409;-77
2022/03/21 01:04:57;;;;;;;29.63;16.03;;;9.30;42.00;;;;;;4922353;28;20520;-77
2022/03/21 01:07:23;;;;;;;27.20;14.63;;;9.00;44.90;;;;;;4921396;28;20497;-77
2022/03/21 01:09:49;;;;;;;27.27;13.20;;;9.30;43.60;;;;;;4960075;28;20405;-77
2022/03/21 01:12:14;;;;;;;24.98;12.43;;;9.50;40.40;;;;;;4923524;28;20445;-77
2022/03/21 01:14:40;;;;;;;23.95;12.98;;;9.40;38.90;;;;;;4896704;28;20409;-76
2022/03/21 01:17:06;;;;;;;29.90;13.50;;;9.20;40.50;;;;;;4936479;28;20440;-77
2022/03/21 01:19:32;;;;;;;25.87;13.63;;;9.00;41.60;;;;;;4937858;28;20436;-77
2022/03/21 01:21:57;;;;;;;23.90;13.10;;;8.90;43.40;;;;;;4921667;28;20795;-77
2022/03/21 01:24:24;;;;;;;26.60;13.00;;;8.80;44.10;;;;;;4924096;28;20433;-77
2022/03/21 01:26:49;;;;;;;30.33;12.77;;;8.70;44.80;;;;;;4925598;28;20432;-77
2022/03/21 01:29:15;;;;;;;22.70;12.00;;;8.60;45.10;;;;;;4922884;28;20430;-77
2022/03/21 01:31:40;;;;;;;28.52;13.70;;;8.50;45.70;;;;;;4926459;28;20409;-77
2022/03/21 01:34:06;;;;;;;23.02;11.63;;;8.30;46.50;;;;;;4902787;28;20787;-76
2022/03/21 01:36:31;;;;;;;22.00;11.20;;;8.20;47.20;;;;;;4911073;28;20515;-75
2022/03/21 01:38:57;;;;;;;28.23;11.77;;;8.10;48.60;;;;;;4903027;28;20417;-75
2022/03/21 01:41:22;;;;;;;23.10;12.30;;;8.00;49.10;;;;;;4914910;28;20409;-76
2022/03/21 01:44:14;;;;;;;22.88;11.68;;;8.00;49.60;;;;;;4913413;28;20406;-76
2022/03/21 01:46:44;;;;;;;24.80;11.65;;;8.50;47.60;;;;;;4902335;29;20528;-76
2022/03/21 01:49:10;;;;;;;25.70;11.68;;;8.80;44.50;;;;;;4916781;28;20775;-77
2022/03/21 01:51:37;;;;;;;25.58;11.60;;;9.10;41.20;;;;;;4916492;28;20768;-75
2022/03/21 01:56:49;;;;;;;27.55;13.35;;;9.20;40.90;;;;;;4917629;28;20917;-75
2022/03/21 01:59:16;;;;;;;23.50;12.43;;;9.20;41.60;;;;;;4915380;28;20440;-75
2022/03/21 02:01:42;;;;;;;26.10;12.70;;;9.10;40.40;;;;;;4913582;28;20413;-76
2022/03/21 02:04:08;;;;;;;23.25;13.70;;;9.10;42.00;;;;;;4913462;29;20413;-76
2022/03/21 02:06:34;;;;;;;26.80;13.40;;;8.80;42.50;;;;;;4911168;28;20413;-76
2022/03/21 02:09:03;;;;;;;32.60;15.70;;;8.80;45.00;;;;;;4914498;28;20760;-76
2022/03/21 02:11:29;;;;;;;26.13;13.63;;;8.60;44.30;;;;;;4916602;28;20417;-75
2022/03/21 02:13:57;;;;;;;21.83;13.68;;;8.50;46.10;;;;;;4913784;28;20401;-75
2022/03/21 02:16:25;;;;;;;28.58;14.70;;;8.80;43.70;;;;;;4913469;28;20405;-76
2022/03/21 02:18:51;;;;;;;26.75;15.10;;;9.00;42.20;;;;;;4938999;28;20409;-76
2022/03/21 02:21:31;;;;;;;30.13;15.90;;;9.00;43.30;;;;;;4914024;28;20409;-76
2022/03/21 02:24:07;;;;;;;27.55;16.38;;;8.60;45.90;;;;;;4911871;28;20428;-76
2022/03/21 02:26:34;;;;;;;32.03;17.43;;;8.60;48.10;;;;;;4912519;29;20444;-76
2022/03/21 02:29:02;;;;;;;32.22;17.10;;;8.90;44.50;;;;;;4912711;28;20409;-75
2022/03/21 02:31:28;;;;;;;33.00;17.90;;;8.80;45.70;;;;;;4911504;28;20452;-76
2022/03/21 02:33:54;;;;;;;31.23;17.20;;;8.80;45.90;;;;;;4913983;28;20883;-75
2022/03/21 02:36:21;;;;;;;31.75;17.70;;;8.90;44.30;;;;;;4912877;28;20406;-76
2022/03/21 02:38:47;;;;;;;36.00;18.17;;;8.90;44.80;;;;;;4895506;28;20501;-76
2022/03/21 02:41:17;;;;;;;28.45;17.10;;;8.80;45.90;;;;;;4906689;28;20409;-75
2022/03/21 02:43:57;;;;;;;32.65;18.02;;;8.60;47.80;;;;;;4913515;28;20513;-75
2022/03/21 02:46:23;;;;;;;33.85;18.52;;;8.70;46.90;;;;;;4906780;28;20413;-75
2022/03/21 02:48:51;;;;;;;31.20;19.45;;;8.70;45.90;;;;;;4902632;28;20424;-75
2022/03/21 02:51:20;;;;;;;32.92;19.15;;;8.30;47.90;;;;;;4917845;28;20409;-75
2022/03/21 02:53:48;;;;;;;36.58;19.77;;;8.40;50.40;;;;;;4917521;28;20536;-76
2022/03/21 02:56:13;;;;;;;35.80;19.83;;;8.50;49.30;;;;;;4905448;28;20426;-74
2022/03/21 02:58:39;;;;;;;39.00;21.63;;;8.60;49.10;;;;;;4911890;28;20405;-75
2022/03/21 03:01:09;;;;;;;43.17;21.97;;;8.30;49.60;;;;;;4912580;28;20413;-75
2022/03/21 03:03:35;;;;;;;32.33;19.05;;;8.10;51.60;;;;;;4912961;28;20909;-75
2022/03/21 03:06:02;;;;;;;37.53;19.00;;;7.90;53.50;;;;;;4913166;28;20432;-76
2022/03/21 03:08:29;;;;;;;39.13;20.50;;;8.30;52.40;;;;;;4914803;28;20420;-75
2022/03/21 03:10:54;;;;;;;39.42;19.55;;;8.50;50.30;;;;;;4911004;29;20500;-76
2022/03/21 03:13:20;;;;;;;33.15;18.30;;;8.50;50.10;;;;;;4911408;28;20891;-75
2022/03/21 03:15:47;;;;;;;33.28;18.90;;;8.30;50.30;;;;;;4912451;29;20408;-76
2022/03/21 03:18:13;;;;;;;34.40;17.90;;;8.20;52.10;;;;;;4909257;28;20421;-76
2022/03/21 03:20:51;;;;;;;30.75;17.30;;;8.30;50.80;;;;;;4895220;28;20424;-75
2022/03/21 03:23:22;;;;;;;34.10;16.30;;;8.20;51.90;;;;;;4907221;28;20410;-75
2022/03/21 03:25:59;;;;;;;29.90;16.90;;;8.20;49.70;;;;;;4910556;28;20498;-75
2022/03/21 03:28:25;;;;;;;33.88;16.88;;;8.20;50.60;;;;;;4911658;29;20881;-76
2022/03/21 03:30:51;;;;;;;31.63;16.33;;;8.10;53.00;;;;;;4911959;28;20405;-76
2022/03/21 03:33:17;;;;;;;31.73;15.48;;;8.00;52.00;;;;;;4910777;29;20483;-75
2022/03/21 03:35:42;;;;;;;37.23;17.27;;;8.10;52.00;;;;;;4914863;29;20485;-75
2022/03/21 03:38:08;;;;;;;32.30;17.07;;;8.30;50.20;;;;;;4918062;28;20489;-75
2022/03/21 03:40:34;;;;;;;37.33;17.15;;;8.30;49.80;;;;;;4919652;28;20442;-75
2022/03/21 03:43:00;;;;;;;40.10;16.55;;;8.20;51.00;;;;;;4921130;29;20406;-75
2022/03/21 03:45:25;;;;;;;33.90;17.50;;;8.00;51.70;;;;;;4923867;28;20455;-74
2022/03/21 03:47:52;;;;;;;31.30;17.27;;;7.80;54.70;;;;;;4925958;28;20427;-75
2022/03/21 03:50:18;;;;;;;31.52;17.38;;;7.40;55.90;;;;;;4927262;28;20428;-75
2022/03/21 03:52:47;;;;;;;35.75;17.70;;;7.40;57.80;;;;;;4918367;28;20413;-76
2022/03/21 03:55:14;;;;;;;38.63;19.33;;;7.20;59.50;;;;;;4898909;28;20497;-76
2022/03/21 03:57:40;;;;;;;33.40;18.27;;;7.00;61.70;;;;;;4896665;28;20516;-74
2022/03/21 04:00:08;;;;;;;33.83;19.88;;;6.80;63.90;;;;;;4911580;28;20520;-75
2022/03/21 04:03:44;;;;;;;35.20;20.00;;;6.80;67.50;;;;;;4912206;28;20402;-76
2022/03/21 04:05:21;;;;;;;42.55;20.30;;;6.90;66.20;;;;;;4909429;29;20427;-75
2022/03/21 04:07:47;;;;;;;38.05;19.75;;;6.80;67.10;;;;;;4917330;28;20904;-76
2022/03/21 04:10:12;;;;;;;38.72;21.20;;;6.80;68.70;;;;;;4916337;28;20405;-75
2022/03/21 04:12:38;;;;;;;41.08;20.60;;;6.80;71.00;;;;;;4900280;28;20504;-76
2022/03/21 04:15:04;;;;;;;39.72;20.50;;;6.80;72.40;;;;;;4911226;28;20520;-75
2022/03/21 04:17:30;;;;;;;38.72;21.25;;;7.00;68.30;;;;;;4939209;28;20481;-76
2022/03/21 04:19:55;;;;;;;39.95;21.90;;;6.90;67.40;;;;;;4919780;28;20441;-75
2022/03/21 04:22:21;;;;;;;36.60;21.30;;;7.00;68.30;;;;;;4903895;28;20455;-75
2022/03/21 04:24:46;;;;;;;38.03;21.48;;;7.00;66.50;;;;;;4914613;28;20420;-76
2022/03/21 04:27:12;;;;;;;41.65;22.02;;;7.00;64.70;;;;;;4915826;28;20409;-75
2022/03/21 04:29:37;;;;;;;36.03;20.55;;;7.10;64.40;;;;;;4899140;28;20428;-75
2022/03/21 04:32:04;;;;;;;42.38;20.42;;;7.00;64.90;;;;;;4915917;28;20448;-76
2022/03/21 04:34:29;;;;;;;34.83;20.48;;;7.10;64.10;;;;;;4915449;28;20507;-75
2022/03/21 04:36:55;;;;;;;45.90;21.23;;;7.00;64.40;;;;;;4914006;28;20463;-75
2022/03/21 04:39:20;;;;;;;35.40;19.17;;;7.20;63.50;;;;;;4898316;28;20417;-74
2022/03/21 04:41:46;;;;;;;34.27;18.73;;;7.60;60.10;;;;;;4915069;28;20455;-75
2022/03/21 04:44:11;;;;;;;36.50;19.07;;;7.50;59.30;;;;;;4914843;28;20473;-74
2022/03/21 04:46:37;;;;;;;37.17;21.07;;;7.40;63.60;;;;;;4915406;28;20412;-76
2022/03/21 04:49:02;;;;;;;41.03;21.13;;;7.10;64.30;;;;;;4918233;28;20413;-76
2022/03/21 04:51:28;;;;;;;37.63;21.13;;;6.80;66.10;;;;;;4897869;28;20406;-77
2022/03/21 04:53:54;;;;;;;41.97;22.03;;;6.70;68.50;;;;;;4915407;28;20409;-76
2022/03/21 04:56:19;;;;;;;35.57;21.67;;;6.50;70.70;;;;;;4917929;28;20401;-76
2022/03/21 04:58:45;;;;;;;40.33;22.38;;;6.40;71.30;;;;;;4916458;28;20404;-76
2022/03/21 05:01:10;;;;;;;36.72;21.30;;;6.30;73.00;;;;;;4915843;28;20740;-76
2022/03/21 05:03:36;;;;;;;43.25;21.27;;;6.20;74.60;;;;;;4915039;28;20770;-75
2022/03/21 05:06:03;;;;;;;37.95;21.15;;;6.10;77.30;;;;;;4911618;28;20426;-77
2022/03/21 05:08:29;;;;;;;36.83;21.38;;;6.10;77.60;;;;;;4927190;28;20417;-77
2022/03/21 05:10:56;;;;;;;40.08;22.92;;;6.10;78.60;;;;;;4915846;28;20406;-76
2022/03/21 05:13:22;;;;;;;49.47;26.60;;;6.00;79.00;;;;;;4913972;28;20493;-76
2022/03/21 05:15:47;;;;;;;56.60;30.37;;;5.90;79.40;;;;;;4916640;28;20850;-76
2022/03/21 05:18:13;;;;;;;58.97;32.63;;;5.90;80.90;;;;;;4921074;28;20425;-77
2022/03/21 05:20:39;;;;;;;63.60;31.63;;;5.90;80.30;;;;;;4927147;28;20425;-77
2022/03/21 05:31:17;;;;;;;57.95;29.42;;;5.80;82.50;;;;;;4916230;29;20400;-77
2022/03/21 05:36:26;;;;;;;47.05;26.33;;;5.60;83.90;;;;;;4917970;29;20470;-75
2022/03/21 05:38:52;;;;;;;53.42;25.92;;;5.70;86.40;;;;;;4922892;29;20461;-76
2022/03/21 05:41:18;;;;;;;60.37;26.27;;;5.80;86.30;;;;;;4919623;28;20405;-76
2022/03/21 05:43:44;;;;;;;53.75;27.13;;;5.80;85.80;;;;;;4918896;28;20887;-76
2022/03/21 05:46:10;;;;;;;50.92;28.27;;;5.70;85.90;;;;;;4922216;28;20424;-75
2022/03/21 05:48:51;;;;;;;47.83;27.27;;;5.60;86.50;;;;;;4923717;28;20404;-77
2022/03/21 05:51:28;;;;;;;51.90;27.97;;;5.60;87.10;;;;;;4925652;28;20454;-77
2022/03/21 05:53:56;;;;;;;50.53;28.05;;;5.50;87.20;;;;;;4922499;28;20432;-76
2022/03/21 05:56:25;;;;;;;51.08;27.80;;;5.50;88.00;;;;;;4922706;29;20573;-77
2022/03/21 05:58:51;;;;;;;48.75;27.05;;;5.50;87.60;;;;;;4910391;28;20410;-77
2022/03/21 06:01:21;;;;;;;51.00;26.67;;;5.70;88.10;;;;;;4926960;29;20430;-77
2022/03/21 06:03:48;;;;;;;56.15;27.25;;;5.70;85.30;;;;;;4928979;29;20389;-77
2022/03/21 06:06:14;;;;;;;48.22;24.88;;;5.70;87.40;;;;;;4927104;28;20417;-76
2022/03/21 06:08:39;;;;;;;46.58;26.02;;;5.80;85.40;;;;;;4936730;28;20548;-77
2022/03/21 06:11:07;;;;;;;57.97;27.95;;;5.80;84.20;;;;;;4927385;28;20406;-77
2022/03/21 06:13:35;;;;;;;50.45;27.77;;;5.80;83.70;;;;;;4924391;28;20421;-78
2022/03/21 06:16:03;;;;;;;47.05;27.23;;;5.80;86.50;;;;;;4927891;28;20459;-78
2022/03/21 06:18:38;;;;;;;45.58;26.77;;;5.90;83.70;;;;;;4929326;28;20416;-76
2022/03/21 06:21:06;;;;;;;56.85;28.70;;;5.80;80.50;;;;;;4926441;28;20400;-76
2022/03/21 06:23:33;;;;;;;53.17;28.27;;;5.90;81.60;;;;;;4925812;28;20406;-78
2022/03/21 06:25:59;;;;;;;56.10;28.17;;;6.30;76.80;;;;;;4927957;28;20428;-77
2022/03/21 06:28:27;;;;;;;50.45;25.05;;;6.40;71.50;;;;;;4930302;28;20463;-77
2022/03/21 06:30:53;;;;;;;49.08;25.17;;;6.60;69.80;;;;;;4927517;28;20417;-77
2022/03/21 06:33:25;;;;;;;46.38;24.33;;;6.60;68.60;;;;;;4931000;28;20438;-76
2022/03/21 06:35:51;;;;;;;45.50;23.50;;;6.80;68.20;;;;;;4935525;28;20755;-77
2022/03/21 06:38:16;;;;;;;45.42;25.90;;;7.00;67.00;;;;;;4909567;28;20420;-78
2022/03/21 06:40:42;;;;;;;52.00;27.67;;;6.90;66.00;;;;;;4925032;28;20467;-77
2022/03/21 06:43:09;;;;;;;50.85;26.10;;;6.80;66.70;;;;;;4928593;29;20406;-78
2022/03/21 06:45:35;;;;;;;59.83;28.17;;;6.70;68.00;;;;;;4930431;28;20424;-78
2022/03/21 06:48:01;;;;;;;48.13;26.75;;;6.60;70.30;;;;;;4928770;28;20397;-77
2022/03/21 06:50:26;;;;;;;49.50;26.38;;;6.70;70.20;;;;;;4913872;28;20410;-77
2022/03/21 06:52:52;;;;;;;49.70;25.70;;;6.90;69.70;;;;;;4921630;28;20503;-79
2022/03/21 06:55:20;;;;;;;50.00;26.20;;;7.00;67.40;;;;;;4919772;29;20414;-78
2022/03/21 06:57:46;;;;;;;44.88;24.58;;;7.00;65.90;;;;;;4918294;29;20540;-77
2022/03/21 07:00:16;;;;;;;44.67;23.48;;;7.10;64.90;;;;;;4914416;28;20440;-77
2022/03/21 07:02:42;;;;;;;45.10;24.20;;;7.20;64.90;;;;;;4903720;28;20506;-79
2022/03/21 07:05:08;;;;;;;46.55;23.75;;;7.40;63.60;;;;;;4915479;28;20449;-77
2022/03/21 07:07:35;;;;;;;44.10;25.70;;;7.50;63.40;;;;;;4896798;28;20998;-74
2022/03/21 07:10:01;;;;;;;42.53;24.77;;;7.60;63.60;;;;;;4912720;28;20460;-75
2022/03/21 07:12:27;;;;;;;44.50;23.63;;;8.00;61.10;;;;;;4938427;28;20414;-75
2022/03/21 07:14:53;;;;;;;53.10;25.35;;;8.20;58.30;;;;;;4911632;28;20507;-75
2022/03/21 07:17:20;;;;;;;48.47;25.80;;;8.40;54.80;;;;;;4899232;28;20480;-76
2022/03/21 07:19:46;;;;;;;44.83;24.98;;;8.40;50.40;;;;;;4910903;29;20436;-75
2022/03/21 07:22:13;;;;;;;42.13;25.48;;;8.40;49.70;;;;;;4908835;28;20774;-75
2022/03/21 07:24:38;;;;;;;46.13;24.13;;;8.50;45.40;;;;;;4892500;28;20512;-76
2022/03/21 07:27:04;;;;;;;41.60;24.10;;;8.70;41.40;;;;;;4913328;28;20992;-75
2022/03/21 07:29:30;;;;;;;44.65;24.77;;;8.80;39.30;;;;;;4905475;28;20448;-75
2022/03/21 07:31:57;;;;;;;40.40;24.45;;;9.00;36.90;;;;;;4911118;28;20527;-75
2022/03/21 07:34:22;;;;;;;36.83;23.25;;;9.10;34.90;;;;;;4912343;28;20425;-75
2022/03/21 07:36:50;;;;;;;38.90;23.33;;;9.20;33.60;;;;;;4911649;28;20421;-75
2022/03/21 07:39:16;;;;;;;37.40;22.50;;;9.30;31.80;;;;;;4910183;29;20429;-78
2022/03/21 07:41:42;;;;;;;34.57;22.90;;;9.50;29.50;;;;;;4911676;28;20423;-77
2022/03/21 07:44:08;;;;;;;35.42;21.70;;;9.70;28.20;;;;;;4921561;28;20463;-77
2022/03/21 07:49:18;;;;;;;36.03;22.90;;;9.80;26.50;;;;;;4914252;28;20440;-74
2022/03/21 07:51:44;;;;;;;37.00;21.97;;;9.90;25.90;;;;;;4924072;28;20915;-77
2022/03/21 07:54:11;;;;;;;39.60;22.93;;;10.00;25.20;;;;;;4923405;28;20492;-77
2022/03/21 07:56:37;;;;;;;32.85;21.80;;;10.10;24.30;;;;;;4924571;28;20421;-77
2022/03/21 07:59:03;;;;;;;35.83;21.30;;;10.20;23.40;;;;;;4914415;28;20424;-76
2022/03/21 08:01:30;;;;;;;34.63;22.02;;;10.30;24.20;;;;;;4921776;28;20413;-77
2022/03/21 08:04:00;;;;;;;36.38;21.60;;;10.40;23.80;;;;;;4916501;29;20426;-77
2022/03/21 08:06:26;;;;;;;37.90;22.40;;;10.70;22.20;;;;;;4920871;29;20428;-77
2022/03/21 08:08:53;;;;;;;34.03;20.52;;;10.80;22.00;;;;;;4922253;29;20501;-77
2022/03/21 08:11:19;;;;;;;33.15;21.52;;;11.00;19.80;;;;;;4900581;28;20417;-74
2022/03/21 08:13:49;;;;;;;32.58;20.88;;;11.00;19.60;;;;;;4908125;28;20471;-75
2022/03/21 08:16:22;;;;;;;35.67;21.15;;;11.00;19.50;;;;;;4912149;28;20451;-75
2022/03/21 08:18:51;;;;;;;39.67;22.30;;;11.10;19.10;;;;;;4919739;28;20413;-75
2022/03/21 08:21:19;;;;;;;32.30;21.23;;;11.20;19.40;;;;;;4910307;28;21138;-75
2022/03/21 08:23:46;;;;;;;34.50;20.85;;;11.30;19.10;;;;;;4912760;29;20418;-78
2022/03/21 08:26:12;;;;;;;36.70;21.70;;;11.40;19.10;;;;;;4912484;28;20482;-79
2022/03/21 08:28:37;;;;;;;33.60;21.65;;;11.40;18.90;;;;;;4909565;28;20487;-76
2022/03/21 08:31:03;;;;;;;31.88;20.98;;;11.40;18.10;;;;;;4938177;28;20988;-74
2022/03/21 08:33:29;;;;;;;33.30;21.45;;;11.70;18.40;;;;;;4912300;28;20830;-77
2022/03/21 08:35:54;;;;;;;34.28;20.90;;;11.80;18.10;;;;;;4901958;28;20453;-73
2022/03/21 08:38:20;;;;;;;36.53;21.48;;;11.80;16.90;;;;;;4911684;28;20845;-73
2022/03/21 08:40:46;;;;;;;33.25;20.80;;;12.00;16.40;;;;;;4911286;28;20421;-73
2022/03/21 08:43:11;;;;;;;36.33;22.13;;;12.00;16.40;;;;;;4911256;28;20524;-73
2022/03/21 08:45:37;;;;;;;31.90;21.60;;;12.10;16.30;;;;;;4911124;28;20815;-73
2022/03/21 08:48:04;;;;;;;33.30;22.13;;;12.20;16.80;;;;;;4911320;28;20425;-71
2022/03/21 08:50:30;;;;;;;34.50;22.35;;;12.20;16.90;;;;;;4904676;28;20421;-77
2022/03/21 08:52:58;;;;;;;37.13;21.48;;;12.30;16.10;;;;;;4912269;28;20412;-75
2022/03/21 08:55:24;;;;;;;34.95;21.80;;;12.50;16.50;;;;;;4912412;28;20417;-75
2022/03/21 08:57:49;;;;;;;35.78;21.48;;;12.60;15.30;;;;;;4907323;28;20471;-77
2022/03/21 09:00:15;;;;;;;42.03;22.42;;;12.50;15.60;;;;;;4909481;29;20978;-75
2022/03/21 09:02:45;;;;;;;34.05;21.13;;;12.60;15.60;;;;;;4892414;28;20417;-75
2022/03/21 09:05:13;;;;;;;37.55;21.98;;;12.80;15.60;;;;;;4896714;29;20417;-75
2022/03/21 09:07:39;;;;;;;39.67;23.23;;;12.80;15.60;;;;;;4915606;28;20418;-76
2022/03/21 09:10:06;;;;;;;37.90;21.85;;;13.00;15.20;;;;;;4913016;28;20543;-76
2022/03/21 09:12:32;;;;;;;36.00;23.13;;;13.00;15.30;;;;;;4916430;28;20977;-77
2022/03/21 09:14:57;;;;;;;35.07;21.90;;;13.00;14.70;;;;;;4896404;28;20464;-76
2022/03/21 09:17:24;;;;;;;34.73;23.13;;;13.10;15.40;;;;;;4915656;28;20413;-75
2022/03/21 09:19:50;;;;;;;35.55;22.50;;;13.20;14.90;;;;;;4913253;28;20559;-76
2022/03/21 09:22:15;;;;;;;40.73;21.60;;;13.30;14.90;;;;;;4911815;28;20505;-76
2022/03/21 09:24:41;;;;;;;34.40;22.20;;;13.50;14.60;;;;;;4922366;28;20486;-76
2022/03/21 09:27:07;;;;;;;36.37;21.60;;;13.60;14.10;;;;;;4932849;28;20413;-77
2022/03/21 09:29:32;;;;;;;33.97;21.77;;;13.70;14.10;;;;;;4924787;28;20425;-76
2022/03/21 09:31:58;;;;;;;37.30;21.65;;;13.70;14.00;;;;;;4910945;28;20493;-77
2022/03/21 09:34:24;;;;;;;34.85;21.45;;;13.80;13.40;;;;;;4915144;28;20410;-75
2022/03/21 09:36:50;;;;;;;36.78;22.55;;;13.90;14.40;;;;;;4913913;28;20925;-74
2022/03/21 09:39:17;;;;;;;44.65;23.10;;;13.90;14.70;;;;;;4913316;28;20421;-77
2022/03/21 09:41:44;;;;;;;38.03;22.33;;;13.80;13.40;;;;;;4902516;28;20935;-74
2022/03/21 09:44:10;;;;;;;39.10;22.27;;;13.90;14.20;;;;;;4918012;28;20414;-74
2022/03/21 09:46:44;;;;;;;39.20;21.95;;;14.00;12.80;;;;;;4914538;29;20918;-75
2022/03/21 09:49:12;;;;;;;32.22;21.92;;;14.10;12.60;;;;;;4915169;28;20405;-77
2022/03/21 09:51:39;;;;;;;33.30;21.77;;;14.10;13.00;;;;;;4902199;28;20410;-76
2022/03/21 09:54:05;;;;;;;35.38;22.20;;;14.10;12.70;;;;;;4925293;28;20415;-74
2022/03/21 09:56:30;;;;;;;39.93;21.60;;;14.20;12.50;;;;;;4901573;28;20980;-75
2022/03/21 09:58:59;;;;;;;35.83;21.15;;;14.20;12.50;;;;;;4910199;29;20432;-76
2022/03/21 10:01:29;;;;;;;36.55;21.95;;;14.20;13.30;;;;;;4909916;28;20409;-77
2022/03/21 10:03:56;;;;;;;35.33;21.25;;;14.40;12.20;;;;;;4911971;28;20474;-75
2022/03/21 10:06:29;;;;;;;40.88;23.33;;;14.40;12.90;;;;;;4897051;28;20776;-76
2022/03/21 10:09:05;;;;;;;34.13;22.55;;;14.40;12.80;;;;;;4911957;28;20484;-76
2022/03/21 10:11:31;;;;;;;42.25;23.10;;;14.60;12.60;;;;;;4915710;28;20405;-76
2022/03/21 10:13:57;;;;;;;33.08;21.70;;;14.70;12.70;;;;;;4914159;28;20941;-76
2022/03/21 10:16:22;;;;;;;38.67;21.20;;;14.60;12.30;;;;;;4911680;28;20520;-76
2022/03/21 10:18:56;;;;;;;40.93;22.00;;;14.80;12.70;;;;;;4905238;28;20803;-76
2022/03/21 10:21:25;;;;;;;36.08;22.05;;;15.00;12.70;;;;;;4918336;28;20405;-75
2022/03/21 10:24:05;;;;;;;33.95;21.75;;;15.20;13.00;;;;;;4916318;28;20744;-76
2022/03/21 10:26:34;;;;;;;39.75;22.30;;;15.10;12.90;;;;;;4912150;28;20414;-76
2022/03/21 10:29:10;;;;;;;37.35;22.80;;;15.30;12.40;;;;;;4922799;28;20472;-75
2022/03/21 10:31:43;;;;;;;44.38;23.45;;;15.30;12.10;;;;;;4913326;29;20413;-76
2022/03/21 10:34:17;;;;;;;36.05;22.10;;;15.20;12.50;;;;;;4908193;29;20423;-77
2022/03/21 10:37:06;;;;;;;35.08;21.67;;;15.20;13.30;;;;;;4910764;28;20402;-76
2022/03/21 10:39:35;;;;;;;34.03;21.50;;;15.40;13.10;;;;;;4909558;28;21075;-77
2022/03/21 10:42:03;;;;;;;37.22;21.58;;;15.50;12.60;;;;;;4915823;28;20406;-78
2022/03/21 10:44:29;;;;;;;41.25;22.23;;;15.70;12.40;;;;;;4915471;28;20421;-76
2022/03/21 10:46:59;;;;;;;41.03;22.15;;;15.80;12.80;;;;;;4914813;28;20402;-76
2022/03/21 10:49:43;;;;;;;36.13;22.50;;;15.80;12.00;;;;;;4898621;28;20418;-76
2022/03/21 10:52:18;;;;;;;41.58;23.23;;;15.90;12.70;;;;;;4913410;28;20824;-76
2022/03/21 10:54:50;;;;;;;41.00;23.63;;;15.90;12.30;;;;;;4913015;28;20435;-76
2022/03/21 10:57:37;;;;;;;40.47;23.50;;;16.00;12.40;;;;;;4913557;29;20409;-76
2022/03/21 11:00:21;;;;;;;41.72;22.27;;;16.10;11.80;;;;;;4913882;29;20452;-76
2022/03/21 11:03:16;;;;;;;36.47;21.23;;;16.10;11.90;;;;;;4912485;29;20428;-76
2022/03/21 11:05:44;;;;;;;34.67;22.20;;;16.30;12.40;;;;;;4913595;29;20421;-76
2022/03/21 11:08:12;;;;;;;37.13;21.57;;;16.30;12.10;;;;;;4951487;28;20417;-76
2022/03/21 11:10:38;;;;;;;37.17;21.10;;;16.40;12.30;;;;;;4913642;28;20468;-76
2022/03/21 11:13:07;;;;;;;40.80;21.67;;;16.40;12.30;;;;;;4910404;29;20427;-77
2022/03/21 11:15:35;;;;;;;37.38;21.60;;;16.40;12.00;;;;;;4909464;28;20418;-76
2022/03/21 11:18:01;;;;;;;36.47;22.20;;;16.50;11.80;;;;;;4914631;28;20421;-76
2022/03/21 11:20:30;;;;;;;35.22;21.42;;;16.60;11.90;;;;;;4912373;29;20759;-76
2022/03/21 11:22:58;;;;;;;32.47;21.00;;;16.60;11.70;;;;;;4909617;28;20444;-76
2022/03/21 11:25:28;;;;;;;34.88;20.45;;;16.60;12.10;;;;;;4904520;28;20421;-76
2022/03/21 11:28:31;;;;;;;36.80;22.08;;;16.80;12.40;;;;;;4901195;28;20417;-76
2022/03/21 11:31:19;;;;;;;35.38;20.23;;;16.90;12.20;;;;;;4904658;29;20845;-78
2022/03/21 11:34:02;;;;;;;37.90;20.80;;;16.90;12.20;;;;;;4893882;29;20774;-76
2022/03/21 11:36:31;;;;;;;38.50;22.67;;;17.00;11.70;;;;;;4908965;28;20423;-77
2022/03/21 11:39:02;;;;;;;41.13;21.70;;;17.10;11.30;;;;;;4913734;28;20498;-77
2022/03/21 11:41:31;;;;;;;42.40;20.63;;;17.20;11.50;;;;;;4894784;29;20441;-77
2022/03/21 11:44:06;;;;;;;37.63;20.05;;;17.30;12.10;;;;;;4911942;28;20449;-74
2022/03/21 11:46:33;;;;;;;32.58;20.02;;;17.10;11.80;;;;;;4909821;28;20425;-75
2022/03/21 11:49:00;;;;;;;33.25;19.80;;;17.20;12.10;;;;;;4914227;29;20405;-76
2022/03/21 11:51:40;;;;;;;37.40;21.08;;;17.30;12.00;;;;;;4905766;29;20427;-73
2022/03/21 11:54:24;;;;;;;38.42;20.80;;;17.50;11.60;;;;;;4910471;29;20454;-73
2022/03/21 11:56:58;;;;;;;37.30;19.92;;;17.60;11.50;;;;;;4916614;28;20409;-73
2022/03/21 11:59:33;;;;;;;32.15;18.33;;;17.70;11.40;;;;;;4910252;28;20413;-73
2022/03/21 12:02:11;;;;;;;31.40;18.05;;;17.80;11.10;;;;;;4905796;28;20423;-74
2022/03/21 12:04:38;;;;;;;32.35;18.00;;;17.80;11.60;;;;;;4893969;28;20418;-75
2022/03/21 12:07:13;;;;;;;35.97;18.70;;;17.80;11.00;;;;;;4910731;28;20520;-75
2022/03/21 12:09:43;;;;;;;34.28;18.45;;;17.80;11.70;;;;;;4909490;28;20409;-76
2022/03/21 12:12:10;;;;;;;32.65;19.50;;;17.70;12.10;;;;;;4912172;28;20401;-75
2022/03/21 12:14:41;;;;;;;32.65;19.80;;;17.80;11.10;;;;;;4907602;28;20547;-75
2022/03/21 12:17:13;;;;;;;34.10;20.13;;;17.70;11.10;;;;;;4909104;28;20417;-75
2022/03/21 12:19:44;;;;;;;30.42;18.02;;;17.80;11.90;;;;;;4910591;28;20422;-75
2022/03/21 12:22:38;;;;;;;31.73;17.75;;;17.80;11.50;;;;;;4912567;28;20436;-75
2022/03/21 12:25:06;;;;;;;33.22;17.88;;;17.90;11.50;;;;;;4912278;28;20417;-76
2022/03/21 12:27:47;;;;;;;30.92;17.90;;;18.10;11.60;;;;;;4913914;28;20444;-76
2022/03/21 12:30:31;;;;;;;27.10;16.63;;;18.30;11.60;;;;;;4907667;28;20440;-76
2022/03/21 12:33:00;;;;;;;23.05;13.95;;;18.30;11.40;;;;;;4908962;28;20429;-76
2022/03/21 12:35:32;;;;;;;20.05;13.40;;;18.30;11.80;;;;;;4914092;28;20433;-76
2022/03/21 12:38:10;;;;;;;21.27;13.20;;;18.30;11.60;;;;;;4911086;28;20413;-74
2022/03/21 12:40:51;;;;;;;25.45;13.10;;;18.00;12.60;;;;;;4916363;28;20887;-75
2022/03/21 12:43:18;;;;;;;25.65;13.60;;;18.20;12.90;;;;;;4901370;28;20418;-77
2022/03/21 12:45:44;;;;;;;30.63;13.02;;;18.30;12.50;;;;;;4914368;28;20417;-75
2022/03/21 12:48:13;;;;;;;21.85;12.27;;;18.40;12.50;;;;;;4913627;29;20460;-77
2022/03/21 12:50:39;;;;;;;20.40;13.00;;;18.60;12.40;;;;;;4916647;29;20414;-75
2022/03/21 12:53:10;;;;;;;28.08;13.05;;;18.70;12.20;;;;;;4934000;28;20416;-76
2022/03/21 12:55:37;;;;;;;18.40;12.53;;;18.80;12.10;;;;;;4906088;28;20421;-77